Nearby METAR Reports

 

ENCN - Kristiansand/Kje, Norway
Distance from station: N 17km
Uppdaterad: 07/04/2020 21:20
Klart
Klart
 Vind från SSV
Vind: SSV 11 km/h
Temperatur: 9°C
Wind Chill: 7°C
Daggpunkt: 1°C
Luftfuktighet: 58%
Barometer: 1030 hPa
Summering: Klart
Visibility: greater than 10 km
2020/04/07 19:20 ENCN 071920Z 21006KT CAVOK 09/01 Q1030
EKSN - Sindal Airport, Denmark
Distance from station: OSO 145km
Uppdaterad: 07/04/2020 14:50
NOT Current
Klart
Klart
 Vind från V
Vind: V 31 km/h
Temperatur: 12°C
Daggpunkt: 3°C
Luftfuktighet: 54%
Barometer: 1030 hPa
Summering: Klart
Visibility: greater than 10 km
2020/04/07 12:50 EKSN 071250Z 28017KT CAVOK 12/03 Q1030
 
EKYT - Alborg, Denmark
Distance from station: SO 153km
Uppdaterad: 07/04/2020 21:20
Klart
Klart
 Vind från V
Vind: V 6 km/h
Temperatur: 8°C
Daggpunkt: 3°C
Luftfuktighet: 71%
Barometer: 1032 hPa
Clouds: Klart
Visibility: 10 km
2020/04/07 19:20 EKYT 071920Z AUTO 26003KT 9999 NCD 08/03 Q1032
ENSN - Skien/Geiterygge, Norway
Distance from station: NO 153km
Uppdaterad: 09/11/2015 09:50
NOT Current
Klart
Klart
 Vind från SSV
Vind: SSV 19 km/h, Vindby: 41 km/h
Temperatur: 7°C
Wind Chill: 4°C
Daggpunkt: 3°C
Luftfuktighet: 76%
Barometer: 1000 hPa
Summering: Klart
Visibility: greater than 10 km
2015/11/09 08:50 ENSN 090850Z 20010G22KT 150V240 CAVOK 07/03 Q1000
 
ENZV - Stavanger/Sola(A, Norway
Distance from station: NV 166km
Uppdaterad: 07/04/2020 21:20
Klart
Klart
 Vind från S
Vind: S 9 km/h
Temperatur: 7°C
Wind Chill: 6°C
Daggpunkt: 2°C
Luftfuktighet: 71%
Barometer: 1029 hPa
Summering: Klart
Visibility: greater than 10 km
2020/04/07 19:20 ENZV 071920Z 17005KT CAVOK 07/02 Q1029 NOSIG
ENNO - Notodden, Norway
Distance from station: NNO 182km
Uppdaterad: 06/04/2020 11:50
NOT Current
Nearby showers, Delvis molnigt
Nearby showers, Delvis molnigt
 Vind från V
Vind: V 6 km/h
Temperatur: 7°C
Daggpunkt: 2°C
Luftfuktighet: 71%
Barometer: 1021 hPa
Summering: Nearby Showers
Clouds: Delvis molnigt
Visibility: 10 km
Cloud details: Delvis molnigt 853 m
2020/04/06 09:50 ENNO 060950Z 27003KT 9999 VCSH SCT028 07/02 Q1021
 
ENTO - Torp (civ/Nor-Af, Norway
Distance from station: NO 183km
Uppdaterad: 07/04/2020 21:20
Klart
Klart
 Vind från VSV
Vind: VSV 9 km/h
Temperatur: 9°C
Wind Chill: 7°C
Daggpunkt: -3°C
Luftfuktighet: 43%
Barometer: 1028 hPa
Summering: Klart
Visibility: greater than 10 km
2020/04/07 19:20 ENTO 071920Z 25005KT CAVOK 09/M03 Q1028 NOSIG
EKKA - Karup (dan-Afb), Denmark
Distance from station: SSO 209km
Uppdaterad: 07/04/2020 21:20
Klart
Klart
 Vind från SSV
Vind: SSV 4 km/h
Temperatur: 8°C
Daggpunkt: 1°C
Luftfuktighet: 62%
Barometer: 1032 hPa
Clouds: Klart
Visibility: 10 km
2020/04/07 19:20 EKKA 071920Z AUTO 21002KT 9999 NCD 08/01 Q1032
 
ENHD - Haugesund/Karmoy, Norway
Distance from station: NV 216km
Uppdaterad: 07/04/2020 21:20
Delvis molnigt
Delvis molnigt
 Vind från SSO
Vind: SSO 22 km/h
Temperatur: 7°C
Wind Chill: 4°C
Daggpunkt: 4°C
Luftfuktighet: 81%
Barometer: 1028 hPa
Clouds: Delvis molnigt
Visibility: 10 km
Cloud details: Delvis molnigt 1341 m
2020/04/07 19:20 ENHD 071920Z AUTO 16012KT 9999 SCT044/// 07/04 Q1028
ENRY - Rygge (nor-Afb), Norway
Distance from station: NO 216km
Uppdaterad: 07/04/2020 21:20
Klart
Klart
 Vind från SSV
Vind: SSV 11 km/h
Temperatur: 9°C
Wind Chill: 7°C
Daggpunkt: 0°C
Luftfuktighet: 54%
Barometer: 1028 hPa
Summering: Klart
Visibility: greater than 10 km
2020/04/07 19:20 ENRY 071920Z 21006KT CAVOK 09/M00 Q1028
 
ESGP - Goteborg/Save (a, Sweden
Distance from station: O 230km
Uppdaterad: 02/01/2017 11:20
NOT Current
Klart
Klart
 Vind från calm
Vind: Vindstilla
Temperatur: -2°C
Daggpunkt: -4°C
Luftfuktighet: 86%
Barometer: 1012 hPa
Clouds: Klart
Visibility: 10 km
2017/01/02 10:20 ESGP 021020Z AUTO 00000KT 9999 NCD M02/M04 Q1012
EKVJ - Stauning Airport, Denmark
Distance from station: S 233km
Uppdaterad: 07/04/2020 14:50
NOT Current
Klart
Klart
 Vind från V
Vind: V 17 km/h
Temperatur: 12°C
Daggpunkt: 7°C
Luftfuktighet: 72%
Barometer: 1032 hPa
Summering: Klart
Visibility: greater than 10 km
2020/04/07 12:50 EKVJ 071250Z 26009KT CAVOK 12/07 Q1032
 
ENSO - Stord/Soerstokke, Norway
Distance from station: NV 246km
Uppdaterad: 07/04/2020 14:50
NOT Current
Few Clouds
Few Clouds
 Vind från S
Vind: S 17 km/h
Temperatur: 11°C
Daggpunkt: 3°C
Luftfuktighet: 58%
Barometer: 1029 hPa
Clouds: Few Clouds
Visibility: 10 km
Cloud details: Few Clouds 914 m
2020/04/07 12:50 ENSO 071250Z 19009KT 140V260 9999 FEW030 11/03 Q1029
EKAH - Tirstrup (civ/Mi, Denmark
Distance from station: SO 252km
Uppdaterad: 07/04/2020 21:20
Klart
Klart
 Vind från calm
Vind: Vindstilla
Temperatur: 8°C
Daggpunkt: 0°C
Luftfuktighet: 57%
Barometer: 1033 hPa
Clouds: Klart
Visibility: 10 km
2020/04/07 19:20 EKAH 071920Z AUTO 00000KT 9999NDV NCD 08/00 Q1033
 
ESGT - Trollhattan (pvt, Sweden
Distance from station: O 255km
Uppdaterad: 07/04/2020 21:20
Klart
Klart
 Vind från SV
Vind: SV 11 km/h
Temperatur: 7°C
Wind Chill: 5°C
Daggpunkt: 2°C
Luftfuktighet: 71%
Barometer: 1030 hPa
Clouds: Klart
Visibility: 10 km
2020/04/07 19:20 ESGT 071920Z AUTO 22006KT 9999 NCD 07/02 Q1030
ESGG - Goteborg/Landvet, Sweden
Distance from station: O 257km
Uppdaterad: 07/04/2020 21:20
Klart
Klart
 Vind från SV
Vind: SV 9 km/h
Temperatur: 4°C
Wind Chill: 2°C
Daggpunkt: -1°C
Luftfuktighet: 70%
Barometer: 1031 hPa
Summering: Klart
Visibility: greater than 10 km
2020/04/07 19:20 ESGG 071920Z 23005KT CAVOK 04/M01 Q1031 R21/09//95
 
EKBI - Billund Airport, Denmark
Distance from station: SSO 269km
Uppdaterad: 07/04/2020 21:20
Klart
Klart
 Vind från ONO
Vind: ONO 4 km/h
Temperatur: 6°C
Daggpunkt: 1°C
Luftfuktighet: 71%
Barometer: 1033 hPa
Clouds: Klart
Visibility: 10 km
2020/04/07 19:20 EKBI 071920Z AUTO 06002KT 9999 NCD 06/01 Q1033
EKHN - Horns Rev B Heli, Denmark
Distance from station: S 274km
Uppdaterad: 09/08/2016 14:20
NOT Current
Few Clouds
Few Clouds
 Vind från VNV
Vind: VNV 50 km/h, Vindby: 72 km/h
Temperatur: 14°C
Daggpunkt: 10°C
Luftfuktighet: 77%
Barometer: 1018 hPa
Clouds: Few Clouds
Visibility: 10 km
Cloud details: Few Clouds 1158 m
Few Clouds 2438 m
2016/08/09 12:20 EKHN 091220Z AUTO 29027G39KT 270V340 9999NDV FEW038/// FEW080/// 14/10 Q1018
 
ESIB - Satenas (swe-Afb, Sweden
Distance from station: O 277km
Uppdaterad: 07/04/2020 21:20
Klart
Klart
 Vind från SV
Vind: SV 19 km/h
Temperatur: 8°C
Wind Chill: 4°C
Daggpunkt: 4°C
Luftfuktighet: 76%
Barometer: 1029 hPa
Clouds: Klart
Visibility: 10 km
2020/04/07 19:20 ESIB 071920Z AUTO 23010KT 9999 NCD 08/04 Q1029
EKHR - Horns Rev B Heli, Denmark
Distance from station: S 282km
Uppdaterad: 04/10/2016 06:20
NOT Current
Klart
Klart
 Vind från O
Vind: O 4 km/h
Temperatur: 11°C
Daggpunkt: -49°C
Luftfuktighet: 0%
Barometer: 1038 hPa
Clouds: Klart
Visibility: 10 km
2016/10/04 04:20 EKHR 040420Z AUTO 08002KT 9999NDV NCD 11/M49 Q1038